TAF Flughafenprognosen

Nürnberg (Lang-TAF), ausgegeben Di 31.05. 07:00

EDDN 310500Z 3106/0106 11005KT 9999 SCT040 BECMG 3107/3109 26008KT TEMPO 3112/3117 SHRA PROB30 TEMPO 3114/3116 TSRA BKN040CB BECMG 3116/3118 32005KT PROB30 TEMPO 3121/0106 4000 TSRA BKN035CB
GültigkeitVonBisWind in Beaufort
(Knoten)
Wolken
(Meter über Grund)
Sichtweite
(Meter)
Wettererscheinung
Grundvorhersage Di 31.05. 08:00 Mi 01.06. 08:00 OSO 2 (5) Wolkig (1200) >= 10000  
Übergang zu Di 31.05. 09:00 Di 31.05. 11:00 W 3 (8)      
Vorübergehend Di 31.05. 14:00 Di 31.05. 19:00       Regen-Schauer
Vorübergehend
(Wahrscheinlichkeit 30 %)
Di 31.05. 16:00 Di 31.05. 18:00   Stark bewölkt Cb (1200)   Gewitter mit Regen
Übergang zu Di 31.05. 18:00 Di 31.05. 20:00 NW 2 (5)      
Vorübergehend
(Wahrscheinlichkeit 30 %)
Di 31.05. 23:00 Mi 01.06. 08:00   Stark bewölkt Cb (1100) 4000 Gewitter mit Regen

 

Hof (Kurz-TAF), ausgegeben Di 31.05. 07:00

EDQM 310500Z 3106/3115 VRB03KT 9999 SCT030 BECMG 3110/3112 30005KT TEMPO 3113/3115 SHRA SCT015 BKN030TCU
GültigkeitVonBisWind in Beaufort
(Knoten)
Wolken
(Meter über Grund)
Sichtweite
(Meter)
Wettererscheinung
Grundvorhersage Di 31.05. 08:00 Di 31.05. 17:00 Uml 2 (3) Wolkig (910) >= 10000  
Übergang zu Di 31.05. 12:00 Di 31.05. 14:00 WNW 2 (5)      
Vorübergehend Di 31.05. 15:00 Di 31.05. 17:00   Stark bewölkt (910)
Wolkig (460)
  Regen-Schauer

 

Erfurt-Bindersleben (Lang-TAF), ausgegeben Di 31.05. 07:00

EDDE 310500Z 3106/0106 23004KT 9999 SCT045 BECMG 3111/3113 29007KT PROB30 TEMPO 3123/0103 -TSRA BKN015CB PROB30 TEMPO 0104/0106 RA BKN010
GültigkeitVonBisWind in Beaufort
(Knoten)
Wolken
(Meter über Grund)
Sichtweite
(Meter)
Wettererscheinung
Grundvorhersage Di 31.05. 08:00 Mi 01.06. 08:00 SW 2 (4) Wolkig (1400) >= 10000  
Übergang zu Di 31.05. 13:00 Di 31.05. 15:00 WNW 3 (7)      
Vorübergehend
(Wahrscheinlichkeit 30 %)
Mi 01.06. 01:00 Mi 01.06. 05:00   Stark bewölkt Cb (460)   Gewitter mit Regen (schwach)
Vorübergehend
(Wahrscheinlichkeit 30 %)
Mi 01.06. 06:00 Mi 01.06. 08:00   Stark bewölkt (300)   Regen

 

Augsburg (Kurz-TAF), ausgegeben Di 31.05. 07:00

EDMA 310500Z 3106/3115 VRB03KT 9999 SCT040 BECMG 3107/3109 25006KT TEMPO 3112/3115 SHRA BKN020TCU PROB30 TEMPO 3112/3115 4000 TSRA BKN020CB BECMG 3112/3114 05005KT
GültigkeitVonBisWind in Beaufort
(Knoten)
Wolken
(Meter über Grund)
Sichtweite
(Meter)
Wettererscheinung
Grundvorhersage Di 31.05. 08:00 Di 31.05. 17:00 Uml 2 (3) Wolkig (1200) >= 10000  
Übergang zu Di 31.05. 09:00 Di 31.05. 11:00 WSW 2 (6)      
Vorübergehend Di 31.05. 14:00 Di 31.05. 17:00   Stark bewölkt (610)   Regen-Schauer
Vorübergehend
(Wahrscheinlichkeit 30 %)
Di 31.05. 14:00 Di 31.05. 17:00   Stark bewölkt Cb (610) 4000 Gewitter mit Regen
Übergang zu Di 31.05. 14:00 Di 31.05. 16:00 NO 2 (5)      

 

Frankfurt (Lang-TAF), ausgegeben Di 31.05. 07:00

EDDF 310500Z 3106/0112 18006KT 9999 SCT045 BECMG 3114/3117 26005KT
GültigkeitVonBisWind in Beaufort
(Knoten)
Wolken
(Meter über Grund)
Sichtweite
(Meter)
Wettererscheinung
Grundvorhersage Di 31.05. 08:00 Mi 01.06. 14:00 S 2 (6) Wolkig (1400) >= 10000  
Übergang zu Di 31.05. 16:00 Di 31.05. 19:00 W 2 (5)      

 

Stuttgart (Lang-TAF), ausgegeben Di 31.05. 07:00

EDDS 310500Z 3106/0106 VRB03KT CAVOK BECMG 3107/3110 23006KT BECMG 3115/3118 VRB03KT
GültigkeitVonBisWind in Beaufort
(Knoten)
Wolken
(Meter über Grund)
Sichtweite
(Meter)
Wettererscheinung
Grundvorhersage Di 31.05. 08:00 Mi 01.06. 08:00 Uml 2 (3) Nicht signifikant >= 10000  
Übergang zu Di 31.05. 09:00 Di 31.05. 12:00 SW 2 (6)      
Übergang zu Di 31.05. 17:00 Di 31.05. 20:00 Uml 2 (3)      

 

München (Lang-TAF), ausgegeben Di 31.05. 07:00

EDDM 310500Z 3106/0112 VRB03KT 9999 SCT040 BECMG 3109/3111 03006KT TEMPO 3113/0106 4000 SHRA BKN020TCU PROB30 TEMPO 3113/3117 TSRA BKN020CB BECMG 3117/3119 24005KT TEMPO 3121/0107 24010KT BECMG 0107/0109 30010KT
GültigkeitVonBisWind in Beaufort
(Knoten)
Wolken
(Meter über Grund)
Sichtweite
(Meter)
Wettererscheinung
Grundvorhersage Di 31.05. 08:00 Mi 01.06. 14:00 Uml 2 (3) Wolkig (1200) >= 10000  
Übergang zu Di 31.05. 11:00 Di 31.05. 13:00 NNO 2 (6)      
Vorübergehend Di 31.05. 15:00 Mi 01.06. 08:00   Stark bewölkt (610) 4000 Regen-Schauer
Vorübergehend
(Wahrscheinlichkeit 30 %)
Di 31.05. 15:00 Di 31.05. 19:00   Stark bewölkt Cb (610)   Gewitter mit Regen
Übergang zu Di 31.05. 19:00 Di 31.05. 21:00 WSW 2 (5)      
Vorübergehend Di 31.05. 23:00 Mi 01.06. 09:00 WSW 3 (10)      
Übergang zu Mi 01.06. 09:00 Mi 01.06. 11:00 WNW 3 (10)